createdAt,value
2023-01-30T00:02:21.049Z,12.18
2023-01-30T00:05:23.056Z,12.05
2023-01-30T00:08:24.938Z,12.80
2023-01-30T00:11:28.675Z,13.02
2023-01-30T00:14:30.560Z,12.73
2023-01-30T00:17:32.298Z,12.63
2023-01-30T00:20:34.291Z,13.13
2023-01-30T00:23:36.913Z,12.90
2023-01-30T00:26:38.640Z,12.48
2023-01-30T00:29:40.463Z,12.77
2023-01-30T00:32:42.377Z,13.82
2023-01-30T00:35:46.017Z,13.18
2023-01-30T00:38:48.532Z,12.57
2023-01-30T00:42:11.062Z,12.95
2023-01-30T00:45:32.320Z,13.05
2023-01-30T00:48:34.039Z,12.50
2023-01-30T00:51:36.305Z,13.63
2023-01-30T00:54:38.042Z,14.52
2023-01-30T00:57:39.696Z,13.32
2023-01-30T01:00:41.525Z,13.90
2023-01-30T01:03:43.582Z,14.23
2023-01-30T01:06:45.405Z,12.95
2023-01-30T01:09:47.378Z,14.00
2023-01-30T01:12:50.215Z,14.50
2023-01-30T01:15:51.869Z,14.93
2023-01-30T01:18:54.052Z,14.05
2023-01-30T01:21:55.644Z,14.23
2023-01-30T01:24:57.445Z,13.43
2023-01-30T01:27:59.202Z,14.18
2023-01-30T01:31:00.936Z,14.25
2023-01-30T01:34:02.991Z,13.30
2023-01-30T01:37:04.764Z,14.65
2023-01-30T01:40:27.000Z,12.95
2023-01-30T01:43:32.322Z,12.02
2023-01-30T01:46:59.937Z,12.85
2023-01-30T01:50:02.962Z,11.10
2023-01-30T01:53:05.255Z,11.20
2023-01-30T01:56:08.065Z,10.50
2023-01-30T01:59:21.538Z,11.40
2023-01-30T02:02:23.906Z,10.05
2023-01-30T02:05:31.729Z,11.25
2023-01-30T02:08:37.761Z,10.90
2023-01-30T02:11:43.787Z,11.70
2023-01-30T02:14:45.815Z,11.20
2023-01-30T02:17:48.677Z,12.13
2023-01-30T02:21:24.550Z,12.55
2023-01-30T02:24:34.772Z,12.20
2023-01-30T02:28:16.297Z,13.32
2023-01-30T02:31:21.057Z,11.68
2023-01-30T02:34:47.663Z,13.07
2023-01-30T02:38:19.007Z,13.90
2023-01-30T02:44:35.332Z,13.18
2023-01-30T02:47:51.469Z,14.98
2023-01-30T02:50:59.899Z,13.02
2023-01-30T02:54:01.761Z,14.88
2023-01-30T02:57:03.625Z,14.07
2023-01-30T03:00:06.880Z,13.88
2023-01-30T03:03:24.312Z,13.98
2023-01-30T03:06:57.947Z,14.40
2023-01-30T03:10:24.841Z,13.57
2023-01-30T03:13:56.964Z,13.27
2023-01-30T03:17:01.116Z,14.75
2023-01-30T03:20:03.092Z,14.23
2023-01-30T03:23:05.164Z,13.95
2023-01-30T03:26:13.269Z,14.30
2023-01-30T03:29:15.811Z,14.75
2023-01-30T03:32:17.857Z,13.10
2023-01-30T03:35:19.960Z,14.52
2023-01-30T03:38:21.859Z,12.95
2023-01-30T03:41:25.158Z,11.65
2023-01-30T03:44:26.826Z,13.15
2023-01-30T03:47:28.593Z,11.50
2023-01-30T03:50:30.916Z,11.57
2023-01-30T03:53:32.846Z,12.00
2023-01-30T03:56:34.673Z,12.57
2023-01-30T03:59:36.975Z,12.98
2023-01-30T04:02:43.100Z,13.60
2023-01-30T04:05:47.264Z,13.63
2023-01-30T04:08:52.794Z,12.23
2023-01-30T04:12:07.361Z,12.00
2023-01-30T04:15:14.520Z,11.43
2023-01-30T04:18:27.777Z,11.13
2023-01-30T04:21:37.763Z,9.48
2023-01-30T04:24:39.618Z,8.45
2023-01-30T04:27:41.535Z,9.50
2023-01-30T04:30:52.866Z,9.32
2023-01-30T04:34:20.897Z,8.87
2023-01-30T04:37:22.554Z,8.30
2023-01-30T04:40:24.531Z,7.72
2023-01-30T04:43:28.282Z,8.35
2023-01-30T04:46:48.608Z,7.68
2023-01-30T04:49:51.206Z,7.65
2023-01-30T04:52:52.976Z,7.93
2023-01-30T04:55:54.761Z,8.60
2023-01-30T04:58:56.564Z,7.82
2023-01-30T05:01:58.700Z,6.60
2023-01-30T05:05:00.308Z,7.80
2023-01-30T05:08:02.045Z,7.45
2023-01-30T05:11:04.001Z,6.47
2023-01-30T05:14:05.817Z,6.53
2023-01-30T05:17:07.936Z,6.95
2023-01-30T05:20:10.588Z,6.95
2023-01-30T05:23:12.258Z,6.22
2023-01-30T05:26:15.265Z,5.80
2023-01-30T05:29:16.966Z,6.38
2023-01-30T05:32:19.968Z,6.70
2023-01-30T05:35:21.653Z,6.47
2023-01-30T05:38:24.822Z,5.50
2023-01-30T05:41:26.645Z,5.53
2023-01-30T05:44:28.663Z,5.60
2023-01-30T05:47:30.294Z,5.70
2023-01-30T05:50:32.178Z,5.57
2023-01-30T05:53:35.063Z,5.50
2023-01-30T05:56:36.679Z,5.30
2023-01-30T05:59:38.521Z,4.95
2023-01-30T06:02:40.213Z,4.45
2023-01-30T06:05:42.042Z,4.18
2023-01-30T06:08:44.002Z,3.53
2023-01-30T06:11:45.787Z,4.25
2023-01-30T06:14:47.814Z,3.25
2023-01-30T06:17:49.408Z,3.47
2023-01-30T06:20:52.866Z,3.80
2023-01-30T06:23:54.631Z,4.25
2023-01-30T06:26:56.462Z,4.68
2023-01-30T06:29:58.022Z,5.10
2023-01-30T06:32:59.556Z,4.88
2023-01-30T06:36:01.291Z,5.15
2023-01-30T06:39:03.077Z,5.63
2023-01-30T06:42:05.059Z,4.65
2023-01-30T06:45:07.431Z,4.57
2023-01-30T06:48:09.681Z,3.67
2023-01-30T06:51:11.471Z,4.32
2023-01-30T06:54:14.505Z,3.95
2023-01-30T06:57:16.167Z,3.97
2023-01-30T07:00:20.331Z,4.25
2023-01-30T07:03:22.267Z,4.32
2023-01-30T07:06:26.288Z,3.55
2023-01-30T07:09:28.133Z,4.78
2023-01-30T07:12:30.188Z,3.55
2023-01-30T07:15:32.744Z,3.47
2023-01-30T07:18:34.434Z,3.05
2023-01-30T07:21:36.282Z,2.67
2023-01-30T07:24:39.716Z,3.65
2023-01-30T07:27:41.449Z,2.70
2023-01-30T07:30:43.171Z,3.72
2023-01-30T07:33:44.940Z,2.42
2023-01-30T07:36:46.667Z,2.40
2023-01-30T07:39:48.338Z,2.35
2023-01-30T07:43:00.398Z,2.80
2023-01-30T07:46:02.826Z,3.33
2023-01-30T07:49:05.858Z,2.20
2023-01-30T07:52:07.735Z,2.65
2023-01-30T07:55:10.160Z,2.42
2023-01-30T07:58:15.928Z,2.10
2023-01-30T08:01:18.282Z,2.30
2023-01-30T08:04:20.321Z,4.05
2023-01-30T08:07:22.382Z,2.55
2023-01-30T08:10:24.816Z,2.45
2023-01-30T08:13:26.669Z,2.20
2023-01-30T08:16:28.581Z,3.17
2023-01-30T08:19:30.400Z,2.40
2023-01-30T08:22:31.959Z,2.80
2023-01-30T08:25:35.830Z,2.42
2023-01-30T08:28:37.958Z,2.10
2023-01-30T08:31:39.911Z,2.92
2023-01-30T08:34:41.699Z,2.10
2023-01-30T08:37:44.237Z,2.75
2023-01-30T08:40:46.102Z,2.33
2023-01-30T08:43:47.974Z,2.90
2023-01-30T08:46:50.074Z,2.83
2023-01-30T08:49:53.095Z,2.80
2023-01-30T08:52:54.905Z,2.53
2023-01-30T08:55:56.490Z,1.90
2023-01-30T08:58:58.550Z,2.67
2023-01-30T09:02:01.444Z,2.47
2023-01-30T09:05:04.433Z,3.05
2023-01-30T09:08:06.501Z,2.05
2023-01-30T09:11:08.224Z,2.05
2023-01-30T09:14:10.441Z,2.70
2023-01-30T09:17:13.042Z,2.33
2023-01-30T09:20:15.124Z,2.17
2023-01-30T09:23:17.729Z,2.83
2023-01-30T09:26:19.462Z,3.08
2023-01-30T09:29:21.301Z,2.67
2023-01-30T09:32:23.036Z,2.10
2023-01-30T09:35:24.668Z,2.47
2023-01-30T09:38:26.418Z,2.13
2023-01-30T09:42:07.398Z,2.00
2023-01-30T09:45:34.809Z,3.03
2023-01-30T09:48:55.005Z,2.22
2023-01-30T09:52:20.236Z,2.43
2023-01-30T09:55:25.028Z,2.03
2023-01-30T09:58:40.766Z,2.55
2023-01-30T10:02:00.250Z,2.00
2023-01-30T10:05:03.589Z,2.05
2023-01-30T10:08:28.935Z,2.20
2023-01-30T10:11:55.008Z,2.90
2023-01-30T10:15:22.926Z,2.33
2023-01-30T10:18:42.821Z,1.63
2023-01-30T10:22:03.601Z,2.35
2023-01-30T10:25:24.461Z,2.47
2023-01-30T10:28:31.468Z,2.30
2023-01-30T10:31:56.448Z,2.90
2023-01-30T10:35:08.199Z,1.95
2023-01-30T10:38:33.447Z,3.78
2023-01-30T10:41:45.548Z,2.20
2023-01-30T10:44:48.292Z,2.78
2023-01-30T10:48:10.372Z,2.22
2023-01-30T10:51:25.185Z,2.42
2023-01-30T10:55:05.778Z,2.00
2023-01-30T10:58:43.874Z,2.60
2023-01-30T11:02:08.561Z,1.83
2023-01-30T11:05:21.625Z,2.80
2023-01-30T11:08:24.854Z,3.28
2023-01-30T11:11:31.393Z,1.95
2023-01-30T11:14:59.125Z,2.35
2023-01-30T11:18:40.452Z,2.22
2023-01-30T11:21:42.404Z,2.13
2023-01-30T11:24:46.682Z,2.05
2023-01-30T11:27:56.171Z,1.95
2023-01-30T11:31:00.884Z,1.88
2023-01-30T11:34:06.233Z,2.55
2023-01-30T11:37:23.816Z,1.77
2023-01-30T11:40:31.222Z,2.13
2023-01-30T11:43:39.730Z,2.45
2023-01-30T11:46:43.541Z,2.30
2023-01-30T11:49:53.886Z,2.70
2023-01-30T11:53:33.252Z,2.10
2023-01-30T11:56:48.095Z,4.63
2023-01-30T11:59:57.237Z,2.42
2023-01-30T12:03:07.085Z,3.20
2023-01-30T12:06:09.331Z,2.20
2023-01-30T12:09:50.617Z,2.83
2023-01-30T12:16:06.037Z,2.50
2023-01-30T12:19:21.418Z,2.83
2023-01-30T12:22:35.626Z,2.45
2023-01-30T12:25:58.804Z,2.13
2023-01-30T12:29:15.868Z,2.28
2023-01-30T12:32:22.025Z,1.85
2023-01-30T12:35:35.593Z,2.22
2023-01-30T12:39:11.271Z,2.13
2023-01-30T12:42:47.684Z,2.00
2023-01-30T12:46:04.059Z,1.92
2023-01-30T12:49:33.177Z,3.13
2023-01-30T12:52:54.113Z,1.73
2023-01-30T13:00:13.508Z,1.10
2023-01-30T13:03:21.227Z,0.98
2023-01-30T13:06:55.666Z,0.90
2023-01-30T13:10:21.337Z,1.52
2023-01-30T13:13:36.176Z,1.33
2023-01-30T13:17:07.061Z,1.70
2023-01-30T13:20:23.988Z,1.42
2023-01-30T13:24:03.140Z,1.50
2023-01-30T13:27:09.778Z,2.25
2023-01-30T13:30:18.669Z,1.77
2023-01-30T13:33:25.572Z,2.17
2023-01-30T13:36:40.105Z,2.28
2023-01-30T13:40:03.396Z,1.95
2023-01-30T13:43:29.001Z,1.85
2023-01-30T13:46:32.532Z,1.90
2023-01-30T13:49:49.839Z,2.05
2023-01-30T13:53:05.258Z,1.52
2023-01-30T13:56:40.824Z,1.70
2023-01-30T14:00:14.928Z,1.42
2023-01-30T14:03:33.107Z,1.60
2023-01-30T14:06:39.275Z,1.20
2023-01-30T14:09:48.988Z,1.17
2023-01-30T14:12:53.707Z,1.25
2023-01-30T14:16:07.447Z,1.33
2023-01-30T14:19:43.594Z,1.10
2023-01-30T14:22:54.717Z,1.23
2023-01-30T14:25:57.671Z,1.52
2023-01-30T14:28:59.329Z,1.45
2023-01-30T14:32:01.435Z,1.55
2023-01-30T14:35:03.219Z,1.70
2023-01-30T14:38:17.813Z,1.60
2023-01-30T14:41:28.610Z,2.55
2023-01-30T14:48:32.151Z,1.77
2023-01-30T14:51:40.280Z,2.47
2023-01-30T14:54:50.382Z,1.73
2023-01-30T14:58:01.649Z,1.40
2023-01-30T15:01:04.131Z,1.77
2023-01-30T15:04:05.867Z,1.70
2023-01-30T15:07:20.479Z,1.90
2023-01-30T15:11:04.923Z,2.35
2023-01-30T15:14:28.837Z,1.98
2023-01-30T15:18:07.912Z,1.63
2023-01-30T15:21:38.310Z,3.45
2023-01-30T15:24:47.348Z,2.40
2023-01-30T15:28:04.278Z,2.83
2023-01-30T15:31:24.680Z,2.75
2023-01-30T15:34:34.443Z,1.90
2023-01-30T15:37:56.380Z,1.80
2023-01-30T15:41:11.196Z,2.47
2023-01-30T15:45:01.826Z,2.22
2023-01-30T15:48:41.319Z,2.50
2023-01-30T15:51:43.225Z,2.70
2023-01-30T15:54:56.846Z,2.40
2023-01-30T15:58:03.609Z,3.20
2023-01-30T16:01:06.712Z,2.65
2023-01-30T16:04:26.169Z,3.05
2023-01-30T16:07:27.808Z,2.15
2023-01-30T16:10:30.912Z,2.63
2023-01-30T16:13:33.471Z,2.05
2023-01-30T16:16:36.339Z,2.03
2023-01-30T16:19:39.207Z,2.70
2023-01-30T16:22:44.473Z,3.08
2023-01-30T16:25:47.933Z,2.10
2023-01-30T16:28:51.065Z,2.20
2023-01-30T16:31:54.546Z,3.45
2023-01-30T16:35:27.366Z,2.22
2023-01-30T16:38:47.509Z,1.92
2023-01-30T16:41:54.811Z,2.17
2023-01-30T16:45:21.586Z,2.47
2023-01-30T16:48:35.433Z,2.28
2023-01-30T16:51:37.535Z,2.88
2023-01-30T16:54:46.249Z,2.80
2023-01-30T16:57:58.608Z,3.30
2023-01-30T17:01:03.060Z,2.95
2023-01-30T17:04:08.677Z,3.10
2023-01-30T17:07:32.785Z,2.15
2023-01-30T17:10:37.724Z,2.38
2023-01-30T17:13:42.508Z,3.15
2023-01-30T17:16:46.198Z,2.33
2023-01-30T17:19:48.678Z,2.80
2023-01-30T17:22:52.884Z,2.33
2023-01-30T17:25:54.758Z,2.42
2023-01-30T17:28:56.691Z,2.63
2023-01-30T17:31:58.921Z,2.92
2023-01-30T17:35:00.846Z,2.17
2023-01-30T17:38:06.292Z,2.17
2023-01-30T17:41:23.009Z,1.77
2023-01-30T17:44:24.735Z,2.65
2023-01-30T17:47:27.035Z,1.80
2023-01-30T17:50:29.163Z,2.30
2023-01-30T17:53:30.959Z,1.90
2023-01-30T17:56:38.459Z,2.28
2023-01-30T17:59:40.416Z,1.95
2023-01-30T18:02:42.344Z,2.03
2023-01-30T18:05:44.771Z,2.88
2023-01-30T18:08:47.340Z,2.25
2023-01-30T18:11:49.701Z,1.98
2023-01-30T18:14:52.408Z,2.58
2023-01-30T18:17:56.443Z,1.80
2023-01-30T18:20:58.368Z,2.53
2023-01-30T18:24:02.389Z,2.20
2023-01-30T18:27:04.105Z,2.33
2023-01-30T18:30:06.427Z,3.05
2023-01-30T18:33:07.978Z,2.55
2023-01-30T18:36:11.551Z,2.65
2023-01-30T18:39:14.812Z,2.80
2023-01-30T18:42:16.681Z,2.58
2023-01-30T18:45:18.731Z,2.50
2023-01-30T18:48:20.623Z,2.55
2023-01-30T18:51:28.102Z,2.60
2023-01-30T18:54:29.930Z,2.28
2023-01-30T18:57:31.844Z,2.28
2023-01-30T19:00:33.968Z,2.78
2023-01-30T19:03:35.886Z,2.97
2023-01-30T19:06:40.959Z,4.15
2023-01-30T19:09:42.740Z,3.15
2023-01-30T19:13:03.703Z,2.85
2023-01-30T19:16:06.082Z,2.40
2023-01-30T19:19:09.156Z,3.05
2023-01-30T19:22:12.640Z,3.45
2023-01-30T19:25:14.461Z,2.90
2023-01-30T19:28:16.188Z,3.50
2023-01-30T19:31:20.318Z,3.50
2023-01-30T19:34:22.063Z,2.78
2023-01-30T19:37:24.257Z,2.92
2023-01-30T19:40:26.216Z,2.60
2023-01-30T19:43:28.064Z,3.45
2023-01-30T19:46:31.151Z,2.63
2023-01-30T19:49:35.920Z,2.60
2023-01-30T19:52:38.842Z,3.15
2023-01-30T19:55:40.592Z,3.03
2023-01-30T19:58:43.191Z,2.72
2023-01-30T20:01:45.426Z,3.45
2023-01-30T20:04:47.028Z,3.58
2023-01-30T20:07:49.891Z,2.92
2023-01-30T20:11:01.100Z,3.17
2023-01-30T20:14:05.355Z,3.15
2023-01-30T20:17:07.176Z,3.05
2023-01-30T20:20:10.576Z,3.20
2023-01-30T20:23:12.396Z,3.10
2023-01-30T20:26:19.078Z,3.13
2023-01-30T20:29:20.957Z,2.85
2023-01-30T20:32:22.884Z,3.50
2023-01-30T20:35:25.131Z,3.97
2023-01-30T20:38:31.287Z,2.88
2023-01-30T20:41:35.711Z,3.25
2023-01-30T20:44:37.495Z,2.63
2023-01-30T20:47:40.521Z,2.17
2023-01-30T20:50:42.747Z,2.60
2023-01-30T20:54:00.195Z,3.40
2023-01-30T20:57:03.104Z,3.08
2023-01-30T21:00:06.055Z,2.63
2023-01-30T21:03:07.844Z,3.33
2023-01-30T21:06:09.451Z,2.35
2023-01-30T21:09:22.658Z,3.05
2023-01-30T21:12:24.539Z,2.67
2023-01-30T21:15:26.462Z,2.75
2023-01-30T21:18:33.198Z,2.22
2023-01-30T21:21:41.434Z,2.63
2023-01-30T21:24:42.974Z,2.33
2023-01-30T21:27:44.919Z,3.00
2023-01-30T21:30:47.151Z,2.40
2023-01-30T21:33:49.727Z,2.45
2023-01-30T21:37:09.989Z,3.22
2023-01-30T21:40:31.037Z,2.63
2023-01-30T21:46:39.371Z,2.30
2023-01-30T21:49:43.958Z,2.38
2023-01-30T21:52:45.701Z,2.33
2023-01-30T21:55:53.637Z,2.25
2023-01-30T21:58:56.648Z,2.38
2023-01-30T22:01:58.406Z,1.95
2023-01-30T22:05:00.216Z,3.42
2023-01-30T22:08:02.648Z,2.55
2023-01-30T22:11:13.594Z,1.92
2023-01-30T22:17:17.160Z,2.83
2023-01-30T22:20:19.168Z,1.30
2023-01-30T22:23:21.041Z,1.50
2023-01-30T22:26:24.802Z,1.80
2023-01-30T22:29:26.579Z,1.65
2023-01-30T22:32:28.260Z,1.55
2023-01-30T22:35:29.969Z,1.80
2023-01-30T22:38:31.970Z,1.65
2023-01-30T22:41:36.045Z,1.85
2023-01-30T22:44:39.586Z,2.53
2023-01-30T22:47:41.688Z,1.60
2023-01-30T22:50:43.309Z,1.60
2023-01-30T22:53:47.818Z,2.20
2023-01-30T22:56:51.589Z,1.90
2023-01-30T22:59:53.394Z,1.83
2023-01-30T23:02:56.141Z,2.72
2023-01-30T23:06:02.224Z,2.45
2023-01-30T23:09:05.992Z,3.03
2023-01-30T23:12:26.710Z,2.58
2023-01-30T23:15:28.222Z,1.77
2023-01-30T23:18:48.767Z,1.85
2023-01-30T23:21:50.461Z,3.08
2023-01-30T23:24:52.445Z,2.55
2023-01-30T23:27:54.110Z,2.45
2023-01-30T23:30:55.912Z,2.67
2023-01-30T23:34:01.207Z,2.10
2023-01-30T23:37:02.769Z,2.53
2023-01-30T23:40:04.877Z,3.15
2023-01-30T23:43:08.223Z,2.33
2023-01-30T23:46:09.730Z,2.88
2023-01-30T23:49:13.606Z,3.47
2023-01-30T23:52:15.456Z,3.55
2023-01-30T23:55:18.673Z,3.10
2023-01-30T23:58:20.812Z,2.50
